Time;durP1;ratioP1;P1;durP2;ratioP2;P2;SDS_P1;SDS_P2;PMS_P1;PMS_P2;Temp;Humidity;BMP_temperature;BMP_pressure;BME280_temperature;BME280_humidity;BME280_pressure;Samples;Min_cycle;Max_cycle;Signal;HPM_P1;HPM_P2
2023/10/26 00:00:57;;;;;;;;;;;;;;;;;;;;;
2023/10/26 00:04:31;;;;;;;1309.93;485.70;;;9.80;99.90;;;;;;4955037;28;20073;-85
2023/10/26 00:08:03;;;;;;;1306.77;479.63;;;9.80;99.90;;;;;;4972710;28;20042;-85
2023/10/26 00:11:33;;;;;;;;;;;;;;;;;;;;;
2023/10/26 00:15:07;;;;;;;1363.00;528.03;;;9.90;99.90;;;;;;4974193;28;20050;-86
2023/10/26 00:18:36;;;;;;;1365.47;529.87;;;10.30;99.90;;;;;;4973038;28;20057;-85
2023/10/26 00:30:47;;;;;;;1303.23;495.33;;;9.80;99.90;;;;;;5010356;28;20181;-85
2023/10/26 00:34:13;;;;;;;;;;;;;;;;;;;;;
2023/10/26 00:37:50;;;;;;;;;;;;;;;;;;;;;
2023/10/26 00:40:39;;;;;;;1304.40;496.23;;;9.80;99.90;;;;;;4970451;28;20055;-85
2023/10/26 00:44:04;;;;;;;1357.27;533.97;;;9.80;99.90;;;;;;4993178;28;20143;-85
2023/10/26 00:47:09;;;;;;;1357.40;528.03;;;9.80;99.90;;;;;;4973806;28;20053;-85
2023/10/26 01:05:15;;;;;;;1300.23;482.57;;;9.70;99.90;;;;;;4992481;28;20053;-85
2023/10/26 01:08:57;;;;;;;1294.50;475.27;;;9.70;99.90;;;;;;4998062;28;20053;-84
2023/10/26 01:12:17;;;;;;;;;;;;;;;;;;;;;
2023/10/26 01:15:44;;;;;;;;;;;;;;;;;;;;;
2023/10/26 01:19:09;;;;;;;;;;;;;;;;;;;;;
2023/10/26 01:26:17;;;;;;;;;;;;;;;;;;;;;
2023/10/26 01:29:20;;;;;;;1354.83;530.97;;;9.70;99.90;;;;;;5055969;28;20131;-85
2023/10/26 01:32:27;;;;;;;1299.50;480.33;;;9.70;99.90;;;;;;5074489;28;20056;-85
2023/10/26 01:35:57;;;;;;;1304.33;481.63;;;9.70;99.90;;;;;;5079067;28;20106;-84
2023/10/26 01:39:25;;;;;;;1299.23;472.57;;;9.70;99.90;;;;;;5073576;28;20069;-84
2023/10/26 01:43:04;;;;;;;;;;;;;;;;;;;;;
2023/10/26 01:50:14;;;;;;;1354.97;522.93;;;9.70;99.90;;;;;;5031461;28;19924;-84
2023/10/26 01:53:53;;;;;;;1302.53;480.83;;;9.70;99.90;;;;;;5031278;28;20409;-85
2023/10/26 01:57:24;;;;;;;1354.43;528.03;;;9.70;99.90;;;;;;4971774;28;20054;-84
2023/10/26 02:00:11;;;;;;;1352.23;526.57;;;9.70;99.90;;;;;;4986343;28;20039;-85
2023/10/26 02:03:31;;;;;;;1354.97;527.30;;;9.70;99.90;;;;;;4972346;28;20051;-84
2023/10/26 02:07:12;;;;;;;1301.13;473.00;;;9.70;99.90;;;;;;4979981;28;20090;-84
2023/10/26 02:41:15;;;;;;;1359.27;521.80;;;9.70;99.90;;;;;;5082503;28;20056;-85
2023/10/26 02:44:53;;;;;;;1301.70;461.70;;;10.10;99.90;;;;;;5030773;28;20107;-85
2023/10/26 02:47:46;;;;;;;1309.17;463.50;;;9.70;99.90;;;;;;5028218;28;20053;-85
2023/10/26 02:50:48;;;;;;;1366.87;524.43;;;9.70;99.90;;;;;;5010378;28;20038;-85
2023/10/26 02:53:57;;;;;;;1361.73;518.60;;;9.70;99.90;;;;;;4974868;28;20057;-85
2023/10/26 02:57:27;;;;;;;1299.57;458.37;;;9.70;99.90;;;;;;4974780;28;20050;-84
2023/10/26 03:00:43;;;;;;;;;;;;;;;;;;;;;
2023/10/26 03:04:10;;;;;;;1354.33;519.07;;;9.60;99.90;;;;;;4993983;28;20418;-84
2023/10/26 03:07:52;;;;;;;;;;;;;;;;;;;;;
2023/10/26 03:11:29;;;;;;;1365.57;522.90;;;9.70;99.90;;;;;;4991107;28;20482;-84
2023/10/26 03:14:59;;;;;;;;;;;;;;;;;;;;;
2023/10/26 03:25:24;;;;;;;;;;;;;;;;;;;;;
2023/10/26 03:29:03;;;;;;;1361.38;518.13;;;9.60;99.90;;;;;;5079237;28;20052;-85
2023/10/26 03:32:32;;;;;;;1299.40;448.37;;;9.50;99.90;;;;;;5053991;28;20057;-86
2023/10/26 03:36:03;;;;;;;1360.10;517.53;;;9.50;99.90;;;;;;4996031;28;20089;-87
2023/10/26 03:39:24;;;;;;;1304.03;451.87;;;9.50;99.90;;;;;;4974885;28;20515;-86
2023/10/26 03:46:37;;;;;;;1368.50;518.67;;;9.50;99.90;;;;;;4936488;29;20556;-84
2023/10/26 03:50:11;;;;;;;1300.87;446.30;;;9.50;99.90;;;;;;4917354;29;20606;-85
2023/10/26 03:53:48;;;;;;;;;;;;;;;;;;;;;
2023/10/26 03:57:21;;;;;;;1365.07;517.83;;;9.50;99.90;;;;;;4935672;29;20150;-85
2023/10/26 04:00:39;;;;;;;1378.47;518.93;;;9.40;99.90;;;;;;4908989;29;20079;-85
2023/10/26 04:04:21;;;;;;;1377.60;514.80;;;9.40;99.90;;;;;;4883432;29;20057;-86
2023/10/26 04:11:34;;;;;;;1319.13;447.27;;;9.40;99.90;;;;;;4879520;29;20059;-85
2023/10/26 04:15:04;;;;;;;;;;;;;;;;;;;;;
2023/10/26 04:18:33;;;;;;;1370.57;516.40;;;9.40;99.90;;;;;;4843193;29;20054;-86
2023/10/26 04:21:57;;;;;;;1369.63;511.33;;;9.40;99.90;;;;;;4860678;29;20140;-85
2023/10/26 04:25:28;;;;;;;;;;;;;;;;;;;;;
2023/10/26 04:36:06;;;;;;;1310.33;437.40;;;9.40;99.90;;;;;;4860582;29;20066;-85
2023/10/26 04:39:34;;;;;;;1305.53;433.47;;;9.40;99.90;;;;;;4849121;29;20053;-86
2023/10/26 04:43:05;;;;;;;;;;;;;;;;;;;;;
2023/10/26 04:46:47;;;;;;;1386.60;511.33;;;9.60;99.90;;;;;;4935298;29;20122;-86
2023/10/26 04:50:07;;;;;;;1372.87;507.53;;;9.40;99.90;;;;;;4929604;29;20127;-85
2023/10/26 05:00:59;;;;;;;1388.80;508.90;;;9.40;99.90;;;;;;4990016;28;20037;-85
2023/10/26 05:03:49;;;;;;;1383.20;508.70;;;9.40;99.90;;;;;;4973701;28;20053;-85
2023/10/26 05:06:58;;;;;;;1340.28;443.85;;;9.40;99.90;;;;;;4992203;28;20557;-85
2023/10/26 05:10:27;;;;;;;;;;;;;;;;;;;;;
2023/10/26 05:13:58;;;;;;;;;;;;;;;;;;;;;
2023/10/26 05:17:23;;;;;;;1423.70;525.27;;;9.40;99.90;;;;;;4895904;29;20534;-85
2023/10/26 05:20:49;;;;;;;1357.67;475.13;;;9.40;99.90;;;;;;4893784;29;20154;-85
2023/10/26 05:31:37;;;;;;;1428.40;527.93;;;9.40;99.90;;;;;;4896028;29;20514;-85
2023/10/26 05:35:06;;;;;;;;;;;;;;;;;;;;;
2023/10/26 05:38:14;;;;;;;1428.63;532.17;;;9.40;99.90;;;;;;4896583;29;20070;-85
2023/10/26 05:41:29;;;;;;;1352.53;472.83;;;9.30;99.90;;;;;;4879580;29;20135;-85
2023/10/26 05:44:55;;;;;;;;;;;;;;;;;;;;;
2023/10/26 05:48:24;;;;;;;;;;;;;;;;;;;;;
2023/10/26 05:55:30;;;;;;;1358.50;476.83;;;9.20;99.90;;;;;;4945450;29;20046;-85
2023/10/26 05:58:57;;;;;;;;;;;;;;;;;;;;;
2023/10/26 06:02:36;;;;;;;;;;;;;;;;;;;;;
2023/10/26 06:09:47;;;;;;;1418.80;520.73;;;8.90;99.90;;;;;;4949913;29;20047;-85
2023/10/26 06:13:13;;;;;;;1416.23;524.00;;;8.90;99.90;;;;;;4953329;29;20086;-85
2023/10/26 06:16:12;;;;;;;1421.17;526.90;;;8.80;99.90;;;;;;4965394;28;20188;-85
2023/10/26 06:18:43;;;;;;;1416.10;525.00;;;8.70;99.90;;;;;;4978409;28;20057;-85
2023/10/26 06:21:16;;;;;;;1425.37;526.90;;;8.70;99.90;;;;;;5026448;28;20088;-84
2023/10/26 06:23:48;;;;;;;1418.20;524.17;;;8.60;99.90;;;;;;5011637;28;20042;-86
2023/10/26 06:26:16;;;;;;;1422.73;526.27;;;8.60;99.90;;;;;;5005018;28;20052;-86
2023/10/26 06:28:43;;;;;;;1423.60;523.50;;;8.60;99.90;;;;;;5042121;28;20067;-83
2023/10/26 06:31:45;;;;;;;1427.20;525.50;;;8.50;99.90;;;;;;5073637;28;20547;-83
2023/10/26 06:42:52;;;;;;;1350.97;473.83;;;8.40;99.90;;;;;;5079305;28;20054;-94
2023/10/26 06:45:49;;;;;;;1353.93;476.50;;;8.40;99.90;;;;;;5056490;28;20528;-89
2023/10/26 06:49:02;;;;;;;1413.43;514.57;;;8.40;99.90;;;;;;5055366;28;20055;-85
2023/10/26 06:52:01;;;;;;;1354.87;470.53;;;8.40;99.90;;;;;;5020430;28;20051;-93
2023/10/26 06:55:30;;;;;;;;;;;;;;;;;;;;;
2023/10/26 06:58:39;;;;;;;;;;;;;;;;;;;;;
2023/10/26 07:01:43;;;;;;;1408.23;517.50;;;8.40;99.90;;;;;;5073142;28;20094;-90
2023/10/26 07:08:16;;;;;;;1409.93;519.10;;;8.40;99.90;;;;;;5058226;28;20700;-87
2023/10/26 07:11:45;;;;;;;1353.90;466.67;;;8.40;99.90;;;;;;5059003;28;20405;-89
2023/10/26 07:14:46;;;;;;;1343.97;467.67;;;8.40;99.90;;;;;;5014850;28;20107;-91
2023/10/26 07:17:46;;;;;;;1410.73;515.67;;;8.40;99.90;;;;;;4993673;28;20112;-87
2023/10/26 07:20:34;;;;;;;;;;;8.50;99.90;;;;;;4996795;28;20107;-88
2023/10/26 07:23:32;;;;;;;;;;;8.50;99.90;;;;;;5014404;28;19922;-87
2023/10/26 07:44:52;;;;;;;1428.73;523.37;;;9.30;99.90;;;;;;5027773;28;20064;-88
2023/10/26 07:47:44;;;;;;;;;;;;;;;;;;;;;
2023/10/26 07:50:35;;;;;;;1361.37;473.93;;;9.00;99.90;;;;;;4992004;28;20136;-88
2023/10/26 07:53:30;;;;;;;1425.33;523.17;;;9.00;99.90;;;;;;5031387;28;20045;-88
2023/10/26 07:56:21;;;;;;;1421.83;519.70;;;8.90;99.90;;;;;;5016874;28;20100;-87
2023/10/26 07:59:23;;;;;;;1357.77;477.27;;;9.10;99.90;;;;;;5016944;28;20053;-89
2023/10/26 08:02:29;;;;;;;1352.80;468.47;;;9.40;99.90;;;;;;5050485;28;20125;-86
2023/10/26 08:05:54;;;;;;;1410.53;520.03;;;9.50;99.90;;;;;;5033718;28;20072;-89
2023/10/26 08:09:07;;;;;;;1409.57;520.03;;;9.20;99.90;;;;;;5012776;28;20049;-88
2023/10/26 08:12:20;;;;;;;1354.27;475.47;;;9.20;99.90;;;;;;5032694;28;20060;-88
2023/10/26 08:15:21;;;;;;;1352.97;480.60;;;9.20;99.90;;;;;;5015882;28;20046;-88
2023/10/26 08:18:27;;;;;;;1412.87;521.90;;;9.30;99.90;;;;;;5032547;28;20502;-87
2023/10/26 08:21:31;;;;;;;1355.13;484.03;;;9.30;99.90;;;;;;5001280;28;20145;-87
2023/10/26 08:24:29;;;;;;;1350.60;473.77;;;9.30;99.90;;;;;;5030523;28;20537;-88
2023/10/26 10:07:05;;;;;;;1401.77;531.37;;;9.90;99.90;;;;;;5084154;28;20059;-86
2023/10/26 10:10:17;;;;;;;1337.47;483.53;;;10.20;99.90;;;;;;5029509;28;20595;-85
2023/10/26 10:12:54;;;;;;;1403.80;530.57;;;10.20;99.90;;;;;;4995278;28;20093;-85
2023/10/26 10:16:00;;;;;;;1399.20;529.33;;;10.10;99.90;;;;;;4996001;28;20461;-85
2023/10/26 10:19:26;;;;;;;1340.23;491.03;;;10.30;99.90;;;;;;4972361;28;20113;-89
2023/10/26 10:22:25;;;;;;;1401.80;526.97;;;10.20;99.90;;;;;;4896548;29;20054;-89
2023/10/26 10:25:25;;;;;;;1341.70;480.97;;;10.40;99.90;;;;;;4899851;29;20088;-91
2023/10/26 10:28:50;;;;;;;1347.27;496.20;;;10.60;99.90;;;;;;4877548;29;20061;-87
2023/10/26 10:31:51;;;;;;;1408.22;531.20;;;10.40;99.90;;;;;;4874168;29;20523;-88
2023/10/26 10:34:45;;;;;;;1411.35;531.53;;;10.40;99.90;;;;;;4876763;29;20049;-87
2023/10/26 10:37:45;;;;;;;1355.20;488.10;;;10.50;99.90;;;;;;4861095;29;20053;-87
2023/10/26 10:41:15;;;;;;;;;;;;;;;;;;;;;
2023/10/26 10:44:41;;;;;;;1357.07;491.93;;;10.50;99.90;;;;;;4839759;29;20062;-87
2023/10/26 10:58:25;;;;;;;1354.10;491.57;;;10.50;99.90;;;;;;4966564;28;20139;-86
2023/10/26 11:01:27;;;;;;;1350.43;483.77;;;10.60;99.90;;;;;;5009173;28;20058;-87
2023/10/26 11:04:21;;;;;;;1421.17;533.63;;;10.60;99.90;;;;;;5020496;28;20049;-86
2023/10/26 11:07:30;;;;;;;1416.67;533.30;;;10.30;99.90;;;;;;5033596;28;20429;-87
2023/10/26 11:10:20;;;;;;;1345.67;484.13;;;10.80;99.90;;;;;;5048935;28;20059;-88
2023/10/26 11:12:57;;;;;;;1415.50;531.43;;;10.80;99.90;;;;;;5089020;28;20411;-86
2023/10/26 11:15:53;;;;;;;1356.10;492.03;;;10.80;99.90;;;;;;5070550;28;20043;-88
2023/10/26 11:18:48;;;;;;;1353.60;489.90;;;10.90;99.90;;;;;;5073610;28;20408;-88
2023/10/26 11:21:46;;;;;;;1354.80;483.77;;;10.90;99.90;;;;;;5057724;28;20080;-88
2023/10/26 11:25:00;;;;;;;1430.53;537.47;;;11.00;99.90;;;;;;5068600;28;20457;-88
2023/10/26 11:27:38;;;;;;;1365.70;497.93;;;11.20;99.90;;;;;;5067955;28;20511;-86
2023/10/26 11:30:06;;;;;;;1366.07;501.33;;;11.20;99.90;;;;;;5092540;28;20079;-87
2023/10/26 11:32:37;;;;;;;1431.33;532.83;;;11.30;99.90;;;;;;5092149;28;20093;-86
2023/10/26 11:35:14;;;;;;;1426.70;533.77;;;11.20;99.90;;;;;;5092250;28;20036;-86
2023/10/26 11:37:49;;;;;;;1365.87;503.23;;;11.70;99.90;;;;;;5092376;28;20544;-87
2023/10/26 11:40:18;;;;;;;1434.53;537.47;;;11.40;99.90;;;;;;5069852;28;20046;-85
2023/10/26 11:43:02;;;;;;;1362.93;497.40;;;11.40;99.90;;;;;;5091024;28;20044;-88
2023/10/26 11:45:49;;;;;;;1431.20;535.07;;;11.40;99.90;;;;;;5073989;28;20435;-86
2023/10/26 11:48:43;;;;;;;1436.57;544.93;;;11.40;99.90;;;;;;5094196;28;20046;-87
2023/10/26 11:51:38;;;;;;;1357.33;499.57;;;11.40;99.90;;;;;;5075922;28;20040;-86
2023/10/26 11:54:19;;;;;;;1363.40;501.43;;;11.40;99.90;;;;;;5075663;28;20497;-86
2023/10/26 11:56:59;;;;;;;;;;;;;;;;;;;;;
2023/10/26 12:00:30;;;;;;;1355.77;499.57;;;11.40;99.90;;;;;;5076204;28;20500;-86
2023/10/26 12:03:15;;;;;;;1436.17;541.27;;;11.40;99.90;;;;;;5066816;28;20055;-85
2023/10/26 12:05:51;;;;;;;1438.90;537.43;;;11.40;99.90;;;;;;5091225;28;20040;-87
2023/10/26 12:08:26;;;;;;;1368.80;498.83;;;11.40;99.90;;;;;;5073206;28;20876;-83
2023/10/26 12:10:55;;;;;;;1429.87;538.13;;;11.40;99.90;;;;;;5060740;28;20087;-85
2023/10/26 12:13:22;;;;;;;1362.77;493.13;;;11.40;99.90;;;;;;5076390;28;20040;-87
2023/10/26 12:15:54;;;;;;;1433.73;540.27;;;11.50;99.90;;;;;;5094608;28;20150;-86
2023/10/26 12:18:24;;;;;;;1437.87;543.57;;;11.50;99.90;;;;;;5076493;28;20048;-87
2023/10/26 12:20:55;;;;;;;1367.30;504.27;;;11.50;99.90;;;;;;5075778;28;20044;-87
2023/10/26 12:23:24;;;;;;;1440.77;538.43;;;11.60;99.90;;;;;;5078096;28;20074;-86
2023/10/26 12:25:50;;;;;;;1370.20;502.37;;;11.70;99.90;;;;;;5095855;28;20048;-83
2023/10/26 12:28:27;;;;;;;1371.80;491.57;;;11.70;99.90;;;;;;5070552;28;20455;-87
2023/10/26 12:30:58;;;;;;;1361.03;499.00;;;11.60;99.90;;;;;;5073230;28;20447;-87
2023/10/26 12:33:29;;;;;;;1443.00;542.93;;;11.60;99.90;;;;;;5076745;28;20079;-87
2023/10/26 12:35:59;;;;;;;1361.73;505.13;;;11.70;99.90;;;;;;5093544;28;20079;-86
2023/10/26 12:38:34;;;;;;;1367.33;504.73;;;11.80;99.90;;;;;;5075262;28;20044;-86
2023/10/26 12:41:03;;;;;;;1358.70;503.08;;;11.90;99.90;;;;;;5071636;28;20036;-86
2023/10/26 12:43:38;;;;;;;1445.20;544.83;;;12.00;99.90;;;;;;5078757;28;20036;-89
2023/10/26 12:46:05;;;;;;;1361.33;501.17;;;12.20;99.90;;;;;;5094238;28;20484;-87
2023/10/26 12:48:42;;;;;;;1441.23;541.00;;;12.20;99.90;;;;;;5076499;28;20052;-86
2023/10/26 12:51:22;;;;;;;1361.47;516.67;;;12.30;99.90;;;;;;5093714;28;20083;-85
2023/10/26 12:54:09;;;;;;;1443.70;544.00;;;12.40;99.90;;;;;;5093630;28;20072;-86
2023/10/26 12:56:38;;;;;;;1441.00;543.37;;;12.50;99.90;;;;;;5088385;28;20120;-85
2023/10/26 12:59:19;;;;;;;1376.03;548.67;;;12.60;99.90;;;;;;5050828;28;20036;-82
2023/10/26 13:01:57;;;;;;;1442.33;545.63;;;12.60;99.90;;;;;;5070193;28;20036;-83
2023/10/26 13:04:23;;;;;;;1444.23;545.67;;;12.70;99.90;;;;;;5073676;28;20413;-83
2023/10/26 13:06:54;;;;;;;1365.83;525.47;;;12.80;99.90;;;;;;5054577;28;20058;-83
2023/10/26 13:09:26;;;;;;;1449.07;545.20;;;12.80;99.90;;;;;;5056080;28;20388;-84
2023/10/26 13:12:11;;;;;;;1442.77;542.63;;;12.80;99.90;;;;;;5073690;28;20044;-82
2023/10/26 13:14:38;;;;;;;1448.10;547.03;;;12.90;99.90;;;;;;5087543;28;20036;-83
2023/10/26 13:17:05;;;;;;;1450.40;549.77;;;12.90;99.90;;;;;;5075105;28;20044;-83
2023/10/26 13:19:41;;;;;;;1452.80;550.00;;;12.90;99.90;;;;;;5092998;28;20373;-84
2023/10/26 13:22:15;;;;;;;1371.07;546.37;;;12.90;99.90;;;;;;5092035;28;20085;-84
2023/10/26 13:24:59;;;;;;;1365.83;540.80;;;12.90;99.90;;;;;;5093942;28;20054;-83
2023/10/26 13:27:34;;;;;;;1370.20;582.00;;;12.90;99.90;;;;;;5060823;28;20052;-84
2023/10/26 13:30:03;;;;;;;1358.33;554.70;;;13.00;99.90;;;;;;5071588;28;20067;-85
2023/10/26 13:32:41;;;;;;;1363.83;559.60;;;13.00;99.90;;;;;;5092695;28;20040;-83
2023/10/26 13:35:13;;;;;;;1369.60;565.10;;;13.00;99.90;;;;;;5092269;28;20115;-85
2023/10/26 13:37:41;;;;;;;1438.90;555.00;;;13.00;99.90;;;;;;5070838;28;20545;-85
2023/10/26 13:40:12;;;;;;;1440.07;554.90;;;13.10;99.90;;;;;;5072528;28;20068;-84
2023/10/26 13:42:38;;;;;;;1449.33;566.37;;;13.00;99.90;;;;;;5064660;28;20036;-87
2023/10/26 13:45:16;;;;;;;1454.50;558.10;;;13.00;99.90;;;;;;5054899;28;20484;-87
2023/10/26 13:47:48;;;;;;;1363.70;552.30;;;13.00;99.90;;;;;;5071811;28;20547;-87
2023/10/26 13:50:30;;;;;;;1371.93;544.13;;;13.00;99.90;;;;;;5092926;28;20090;-85
2023/10/26 13:53:03;;;;;;;1451.07;561.73;;;13.00;99.90;;;;;;5066463;28;20515;-84
2023/10/26 13:55:38;;;;;;;1373.93;569.40;;;13.00;99.90;;;;;;5072407;28;20131;-85
2023/10/26 13:58:05;;;;;;;1367.63;561.83;;;13.00;99.90;;;;;;5066020;28;20048;-86
2023/10/26 14:00:41;;;;;;;1375.57;569.93;;;13.00;99.90;;;;;;5092050;28;20036;-86
2023/10/26 14:03:07;;;;;;;1367.57;547.60;;;12.90;99.90;;;;;;5046088;28;20047;-85
2023/10/26 14:05:40;;;;;;;1368.27;552.70;;;12.90;99.90;;;;;;5073336;28;20365;-84
2023/10/26 14:08:07;;;;;;;1449.27;554.70;;;12.80;99.90;;;;;;5073619;28;20488;-83
2023/10/26 14:10:40;;;;;;;1452.13;555.87;;;12.80;99.90;;;;;;5091942;28;20465;-84
2023/10/26 14:13:08;;;;;;;1448.73;563.70;;;12.80;99.90;;;;;;5084799;28;20392;-85
2023/10/26 14:15:34;;;;;;;1478.73;631.37;;;12.80;99.90;;;;;;5033520;28;20097;-84
2023/10/26 14:18:06;;;;;;;1376.30;556.00;;;12.70;99.90;;;;;;5053579;28;20046;-84
2023/10/26 14:20:33;;;;;;;1454.00;558.70;;;12.70;99.90;;;;;;5095732;28;20411;-83
2023/10/26 14:22:59;;;;;;;1452.53;554.67;;;12.70;99.90;;;;;;5078458;28;20056;-83
2023/10/26 14:25:25;;;;;;;1446.80;548.20;;;12.60;99.90;;;;;;5091921;28;20242;-83
2023/10/26 14:27:51;;;;;;;1448.17;551.60;;;12.60;99.90;;;;;;5093238;28;20032;-84
2023/10/26 14:30:17;;;;;;;1446.13;555.63;;;12.60;99.90;;;;;;5074931;28;20101;-83
2023/10/26 14:32:46;;;;;;;1362.37;547.03;;;12.60;99.90;;;;;;5092260;28;20100;-82
2023/10/26 14:35:29;;;;;;;1440.50;550.43;;;12.60;99.90;;;;;;5086746;28;20044;-84
2023/10/26 14:37:59;;;;;;;1442.63;551.33;;;12.60;99.90;;;;;;5073011;28;20497;-85
2023/10/26 14:40:34;;;;;;;1446.83;551.57;;;12.60;99.90;;;;;;5071485;28;20049;-84
2023/10/26 14:43:05;;;;;;;1366.87;536.83;;;12.60;99.90;;;;;;5089689;28;20435;-85
2023/10/26 14:45:41;;;;;;;1369.67;537.73;;;12.60;99.90;;;;;;5085604;28;20044;-84
2023/10/26 14:48:14;;;;;;;1461.47;550.97;;;12.50;99.90;;;;;;5093002;28;20075;-86
2023/10/26 14:50:48;;;;;;;1452.27;551.63;;;12.60;99.90;;;;;;5051887;28;20044;-87
2023/10/26 14:53:18;;;;;;;1372.47;542.53;;;12.50;99.90;;;;;;5091723;28;20086;-83
2023/10/26 14:55:48;;;;;;;1370.47;542.57;;;12.50;99.90;;;;;;5089394;28;20044;-85
2023/10/26 14:58:23;;;;;;;1456.93;550.30;;;12.50;99.90;;;;;;5092017;28;20063;-84
2023/10/26 15:00:51;;;;;;;1367.65;532.75;;;12.60;99.90;;;;;;5090563;28;20808;-86
2023/10/26 15:03:19;;;;;;;1366.97;532.93;;;12.50;99.90;;;;;;5063266;28;20484;-85
2023/10/26 15:05:51;;;;;;;1368.10;532.80;;;12.50;99.90;;;;;;5080100;28;20052;-85
2023/10/26 15:08:22;;;;;;;1445.37;549.93;;;12.80;99.90;;;;;;5072004;28;20458;-84
2023/10/26 15:11:09;;;;;;;1367.60;528.87;;;12.50;99.90;;;;;;5059442;28;20123;-85
2023/10/26 15:13:46;;;;;;;1449.13;544.88;;;12.50;99.90;;;;;;5034393;28;20132;-85
2023/10/26 15:16:13;;;;;;;1365.90;521.83;;;12.50;99.90;;;;;;5053475;28;20473;-85
2023/10/26 15:18:38;;;;;;;1443.73;545.70;;;12.40;99.90;;;;;;5037641;28;20037;-85
2023/10/26 15:21:08;;;;;;;1436.53;542.27;;;12.40;99.90;;;;;;5037463;28;20076;-85
2023/10/26 15:23:37;;;;;;;1356.70;513.97;;;12.40;99.90;;;;;;5074297;28;20036;-85
2023/10/26 15:26:21;;;;;;;1363.73;524.07;;;12.30;99.90;;;;;;5058287;28;20053;-84
2023/10/26 15:28:53;;;;;;;1364.73;528.70;;;12.30;99.90;;;;;;5057826;28;20080;-85
2023/10/26 15:31:35;;;;;;;1366.70;531.30;;;12.30;99.90;;;;;;5069437;28;20052;-85
2023/10/26 15:34:21;;;;;;;1364.03;526.37;;;12.20;99.90;;;;;;5055895;28;20128;-86
2023/10/26 15:36:52;;;;;;;1443.23;546.13;;;12.20;99.90;;;;;;5073724;28;20052;-83
2023/10/26 15:39:59;;;;;;;1356.77;521.93;;;12.10;99.90;;;;;;5075283;28;20044;-84
2023/10/26 15:42:51;;;;;;;;;;;;;;;;;;;;;
2023/10/26 15:45:25;;;;;;;1359.40;516.40;;;12.10;99.90;;;;;;5055525;28;20489;-83
2023/10/26 15:47:54;;;;;;;1356.00;507.87;;;12.10;99.90;;;;;;5040024;28;20444;-84
2023/10/26 15:50:35;;;;;;;1445.07;539.33;;;12.00;99.90;;;;;;5055604;28;20599;-86
2023/10/26 15:53:06;;;;;;;1435.37;540.90;;;12.00;99.90;;;;;;5055158;28;20541;-84
2023/10/26 15:55:33;;;;;;;1355.03;513.20;;;12.00;99.90;;;;;;5075714;28;20048;-83
2023/10/26 15:58:14;;;;;;;1437.73;539.47;;;12.00;99.90;;;;;;5075151;28;20072;-84
2023/10/26 16:01:19;;;;;;;1358.40;516.93;;;11.90;99.90;;;;;;5054143;28;20048;-83
2023/10/26 16:04:04;;;;;;;1357.17;503.23;;;11.90;99.90;;;;;;5053791;28;20060;-85
2023/10/26 16:06:49;;;;;;;1436.73;543.87;;;11.90;99.90;;;;;;5024227;28;20053;-83
2023/10/26 16:09:58;;;;;;;1439.47;539.77;;;11.90;99.90;;;;;;5053546;28;22011;-82
2023/10/26 16:13:00;;;;;;;1355.27;510.27;;;11.80;99.90;;;;;;4993817;28;20053;-84
2023/10/26 16:16:00;;;;;;;1432.93;538.37;;;11.70;99.90;;;;;;4991419;28;20434;-82
2023/10/26 16:19:14;;;;;;;;;;;;;;;;;;;;;
2023/10/26 16:40:16;;;;;;;1437.23;534.50;;;11.50;99.90;;;;;;4976657;28;20085;-82
2023/10/26 16:43:24;;;;;;;;;;;;;;;;;;;;;
2023/10/26 16:46:49;;;;;;;1435.03;538.13;;;11.40;99.90;;;;;;4992851;28;20042;-83
2023/10/26 16:50:09;;;;;;;1435.47;539.37;;;11.70;99.90;;;;;;5050629;28;20389;-82
2023/10/26 16:53:45;;;;;;;;;;;;;;;;;;;;;
2023/10/26 16:56:45;;;;;;;1361.47;492.80;;;11.40;99.90;;;;;;5089985;28;20088;-85
2023/10/26 16:59:21;;;;;;;1442.00;534.63;;;11.30;99.90;;;;;;5076800;28;20157;-82
2023/10/26 17:05:46;;;;;;;1352.63;494.97;;;11.30;99.90;;;;;;5093978;28;20061;-85
2023/10/26 17:08:57;;;;;;;1354.60;498.47;;;11.20;99.90;;;;;;5058735;28;20098;-84
2023/10/26 17:12:34;;;;;;;1357.43;496.57;;;11.20;99.90;;;;;;5094687;28;20123;-84
2023/10/26 17:15:34;;;;;;;1350.63;503.13;;;11.40;99.90;;;;;;5030924;28;20057;-85
2023/10/26 17:18:55;;;;;;;1422.83;532.60;;;11.00;99.90;;;;;;5029984;28;20517;-85
2023/10/26 17:22:32;;;;;;;1422.30;540.27;;;11.00;99.90;;;;;;5012229;28;20060;-85
2023/10/26 17:37:03;;;;;;;;;;;;;;;;;;;;;
2023/10/26 17:40:47;;;;;;;1429.90;531.27;;;10.80;99.90;;;;;;4916062;29;20059;-86
2023/10/26 17:44:13;;;;;;;;;;;;;;;;;;;;;
2023/10/26 17:47:42;;;;;;;;;;;;;;;;;;;;;
2023/10/26 17:51:05;;;;;;;1418.63;530.87;;;10.70;99.90;;;;;;4954011;29;20528;-82
2023/10/26 18:01:17;;;;;;;1347.07;478.17;;;10.60;99.90;;;;;;4924030;28;20042;-85
2023/10/26 18:03:52;;;;;;;1362.20;489.27;;;10.60;99.90;;;;;;4926544;29;20051;-86
2023/10/26 18:06:22;;;;;;;1433.70;528.63;;;10.60;99.90;;;;;;4920695;29;20098;-84
2023/10/26 18:08:51;;;;;;;1433.70;526.87;;;10.60;99.90;;;;;;4932533;29;20512;-82
2023/10/26 18:11:19;;;;;;;1357.93;481.67;;;10.60;99.90;;;;;;4933662;29;20134;-84
2023/10/26 18:13:48;;;;;;;1362.97;490.27;;;10.60;99.90;;;;;;4933412;29;20561;-84
2023/10/26 18:16:33;;;;;;;1430.13;531.30;;;10.60;99.90;;;;;;4933007;29;20515;-84
2023/10/26 18:19:00;;;;;;;1427.80;529.57;;;10.60;99.90;;;;;;4942970;28;20411;-83
2023/10/26 18:21:27;;;;;;;1360.67;486.57;;;10.60;99.90;;;;;;4974422;28;20043;-83
2023/10/26 18:23:55;;;;;;;1427.50;531.53;;;10.50;99.90;;;;;;4990688;28;20042;-84
2023/10/26 18:26:25;;;;;;;1435.70;534.50;;;10.60;99.90;;;;;;4974291;28;20526;-84
2023/10/26 18:28:52;;;;;;;1432.27;534.10;;;10.60;99.90;;;;;;4970384;28;20085;-84
2023/10/26 18:31:21;;;;;;;1360.17;478.93;;;10.50;99.90;;;;;;4971353;28;20376;-84
2023/10/26 18:33:51;;;;;;;1357.30;472.33;;;10.50;99.90;;;;;;5050789;28;20048;-85
2023/10/26 18:36:22;;;;;;;1355.77;479.40;;;10.50;99.90;;;;;;5072821;28;20065;-84
2023/10/26 18:38:51;;;;;;;1436.87;535.07;;;10.50;99.90;;;;;;5053991;28;20389;-84
2023/10/26 18:41:27;;;;;;;1357.33;479.13;;;10.50;99.90;;;;;;5070997;28;20040;-85
2023/10/26 18:43:57;;;;;;;1429.80;532.60;;;10.50;99.90;;;;;;5092916;28;20043;-84
2023/10/26 18:46:26;;;;;;;1366.57;496.50;;;10.40;99.90;;;;;;5091517;28;20052;-85
2023/10/26 18:48:53;;;;;;;1445.53;537.40;;;10.50;99.90;;;;;;5092928;28;20040;-84
2023/10/26 18:51:24;;;;;;;1445.33;533.90;;;10.40;99.90;;;;;;5092390;28;20052;-84
2023/10/26 18:53:55;;;;;;;1452.30;529.87;;;10.40;99.90;;;;;;5073027;28;20119;-85
2023/10/26 18:56:26;;;;;;;1448.03;537.73;;;10.40;99.90;;;;;;5080268;28;20044;-85
2023/10/26 18:58:59;;;;;;;1376.07;501.10;;;10.40;99.90;;;;;;5078030;28;20063;-84
2023/10/26 19:01:27;;;;;;;1447.47;530.70;;;10.40;99.90;;;;;;5094197;28;20036;-83
2023/10/26 19:03:57;;;;;;;1455.17;531.40;;;10.40;99.90;;;;;;5063768;28;20461;-84
2023/10/26 19:06:39;;;;;;;1450.10;526.47;;;10.40;99.90;;;;;;5054661;28;20053;-84
2023/10/26 19:09:18;;;;;;;1373.23;490.57;;;10.40;99.90;;;;;;5075925;28;20397;-83
2023/10/26 19:12:01;;;;;;;1441.33;530.73;;;10.40;99.90;;;;;;5041866;28;20102;-84
2023/10/26 19:14:41;;;;;;;1453.77;534.83;;;10.30;99.90;;;;;;5088345;28;20064;-83
2023/10/26 19:17:13;;;;;;;1447.13;531.83;;;10.40;99.90;;;;;;5096749;28;20048;-85
2023/10/26 19:19:51;;;;;;;1448.33;535.97;;;10.30;99.90;;;;;;5078804;28;20154;-83
2023/10/26 19:22:23;;;;;;;1377.07;493.30;;;10.30;99.90;;;;;;5093958;28;20083;-82
2023/10/26 19:24:50;;;;;;;1447.00;530.57;;;10.30;99.90;;;;;;5094895;28;20044;-85
2023/10/26 19:27:27;;;;;;;1373.60;488.10;;;10.30;99.90;;;;;;5095260;28;20044;-83
2023/10/26 19:29:57;;;;;;;1369.53;488.43;;;10.30;99.90;;;;;;5076005;28;20048;-83
2023/10/26 19:32:57;;;;;;;1367.37;488.07;;;10.40;99.90;;;;;;5062891;28;20396;-84
2023/10/26 19:36:06;;;;;;;1434.83;529.20;;;10.40;99.90;;;;;;5047741;28;20044;-83
2023/10/26 19:39:53;;;;;;;;;;;;;;;;;;;;;
2023/10/26 19:47:03;;;;;;;1438.23;532.73;;;10.40;99.90;;;;;;4975040;28;20045;-85
2023/10/26 19:49:49;;;;;;;1369.47;502.73;;;10.40;99.90;;;;;;4966420;28;20048;-82
2023/10/26 19:52:15;;;;;;;1368.13;490.70;;;10.30;99.90;;;;;;4923621;29;20063;-83
2023/10/26 19:55:05;;;;;;;1440.57;532.63;;;10.40;99.90;;;;;;4955333;29;20408;-85
2023/10/26 19:57:33;;;;;;;1367.13;491.93;;;10.30;99.90;;;;;;4939398;29;20050;-83
2023/10/26 20:00:19;;;;;;;1438.83;530.67;;;10.30;99.90;;;;;;4971834;28;20438;-82
2023/10/26 20:03:05;;;;;;;1366.40;491.07;;;10.30;99.90;;;;;;4936135;29;20386;-83